createdAt,value
2023-06-17T00:00:22.567Z,30.86
2023-06-17T00:02:52.340Z,30.87
2023-06-17T00:05:21.232Z,30.84
2023-06-17T00:07:50.175Z,30.83
2023-06-17T00:10:19.292Z,30.83
2023-06-17T00:12:50.123Z,30.78
2023-06-17T00:15:20.178Z,30.76
2023-06-17T00:17:49.048Z,30.81
2023-06-17T00:20:17.937Z,30.87
2023-06-17T00:22:48.785Z,30.87
2023-06-17T00:25:18.045Z,30.91
2023-06-17T00:27:46.944Z,30.92
2023-06-17T00:30:15.968Z,30.92
2023-06-17T00:32:46.820Z,30.94
2023-06-17T00:35:15.805Z,31.00
2023-06-17T00:37:44.437Z,31.02
2023-06-17T00:40:14.260Z,31.12
2023-06-17T00:42:42.898Z,31.16
2023-06-17T00:45:11.839Z,31.23
2023-06-17T00:47:43.963Z,31.34
2023-06-17T00:50:14.431Z,31.28
2023-06-17T00:52:46.029Z,31.30
2023-06-17T00:55:15.263Z,31.30
2023-06-17T00:57:48.072Z,31.35
2023-06-17T01:00:17.779Z,31.34
2023-06-17T01:02:48.421Z,31.31
2023-06-17T01:05:18.858Z,31.35
2023-06-17T01:08:00.111Z,31.45
2023-06-17T01:10:53.258Z,31.57
2023-06-17T01:13:24.960Z,31.56
2023-06-17T01:15:54.663Z,31.57
2023-06-17T01:18:26.718Z,31.55
2023-06-17T01:20:57.697Z,31.59
2023-06-17T01:23:33.847Z,31.58
2023-06-17T01:26:03.520Z,31.58
2023-06-17T01:28:33.170Z,31.56
2023-06-17T01:31:03.209Z,31.56
2023-06-17T01:33:32.469Z,31.65
2023-06-17T01:36:10.657Z,31.78
2023-06-17T01:38:49.187Z,31.87
2023-06-17T01:41:45.475Z,31.94
2023-06-17T01:44:15.866Z,31.93
2023-06-17T01:46:45.801Z,31.99
2023-06-17T01:49:14.511Z,31.97
2023-06-17T01:51:43.468Z,32.02
2023-06-17T01:54:12.338Z,31.99
2023-06-17T01:56:41.226Z,32.13
2023-06-17T01:59:10.017Z,32.20
2023-06-17T02:01:38.982Z,32.24
2023-06-17T02:04:07.721Z,32.25
2023-06-17T02:06:39.454Z,32.37
2023-06-17T02:09:08.976Z,32.46
2023-06-17T02:11:37.629Z,32.50
2023-06-17T02:14:07.077Z,32.55
2023-06-17T02:16:35.724Z,32.56
2023-06-17T02:19:05.207Z,32.68
2023-06-17T02:21:34.247Z,32.77
2023-06-17T02:24:02.945Z,32.80
2023-06-17T02:26:34.672Z,32.88
2023-06-17T02:29:05.728Z,32.81
2023-06-17T02:31:35.705Z,32.95
2023-06-17T02:34:04.862Z,33.05
2023-06-17T02:36:33.968Z,33.11
2023-06-17T02:39:02.725Z,33.04
2023-06-17T02:41:31.724Z,33.14
2023-06-17T02:44:00.508Z,33.29
2023-06-17T02:46:29.700Z,33.30
2023-06-17T02:48:58.831Z,33.47
2023-06-17T02:51:29.886Z,33.45
2023-06-17T02:53:58.743Z,33.49
2023-06-17T02:56:28.605Z,33.58
2023-06-17T02:58:57.749Z,33.65
2023-06-17T03:01:26.657Z,33.69
2023-06-17T03:03:57.220Z,33.70
2023-06-17T03:06:26.907Z,33.80
2023-06-17T03:08:55.759Z,33.93
2023-06-17T03:11:25.010Z,34.00
2023-06-17T03:13:54.038Z,34.12
2023-06-17T03:16:36.605Z,34.25
2023-06-17T03:19:05.739Z,34.07
2023-06-17T03:21:42.659Z,34.02
2023-06-17T03:24:12.329Z,33.99
2023-06-17T03:26:41.160Z,34.14
2023-06-17T03:29:10.977Z,34.18
2023-06-17T03:31:40.188Z,34.26
2023-06-17T03:34:10.408Z,34.40
2023-06-17T03:36:42.022Z,34.34
2023-06-17T03:39:10.899Z,34.30
2023-06-17T03:41:40.646Z,34.54
2023-06-17T03:44:10.564Z,34.71
2023-06-17T03:46:40.356Z,34.65
2023-06-17T03:49:09.864Z,34.71
2023-06-17T03:51:39.190Z,34.80
2023-06-17T03:54:08.575Z,34.89
2023-06-17T03:56:39.755Z,34.92
2023-06-17T03:59:08.906Z,35.13
2023-06-17T04:01:37.742Z,35.30
2023-06-17T04:04:06.815Z,35.39
2023-06-17T04:06:37.351Z,35.52
2023-06-17T04:09:07.330Z,35.78
2023-06-17T04:11:36.456Z,35.91
2023-06-17T04:14:05.197Z,35.98
2023-06-17T04:16:37.522Z,36.16
2023-06-17T04:19:06.540Z,36.03
2023-06-17T04:21:36.624Z,36.13
2023-06-17T04:24:05.879Z,36.36
2023-06-17T04:26:34.578Z,36.45
2023-06-17T04:29:04.234Z,36.57
2023-06-17T04:31:37.480Z,36.70
2023-06-17T04:34:07.382Z,36.84
2023-06-17T04:36:36.460Z,36.83
2023-06-17T04:39:07.027Z,36.67
2023-06-17T04:41:37.036Z,36.70
2023-06-17T04:44:06.248Z,36.99
2023-06-17T04:46:35.343Z,37.22
2023-06-17T04:49:04.584Z,37.36
2023-06-17T04:51:39.185Z,37.41
2023-06-17T04:54:08.560Z,37.34
2023-06-17T04:56:38.493Z,37.46
2023-06-17T04:59:07.490Z,37.67
2023-06-17T05:01:36.299Z,37.80
2023-06-17T05:04:05.366Z,37.85
2023-06-17T05:06:34.792Z,37.70
2023-06-17T05:09:04.583Z,37.81
2023-06-17T05:11:33.661Z,37.74
2023-06-17T05:14:02.537Z,38.03
2023-06-17T05:16:31.389Z,38.18
2023-06-17T05:19:01.884Z,38.24
2023-06-17T05:21:31.658Z,38.16
2023-06-17T05:24:03.611Z,38.34
2023-06-17T05:26:33.108Z,38.15
2023-06-17T05:29:01.785Z,38.54
2023-06-17T05:31:30.911Z,38.78
2023-06-17T05:34:01.083Z,38.65
2023-06-17T05:36:30.063Z,38.68
2023-06-17T05:38:58.753Z,38.72
2023-06-17T05:41:28.586Z,38.75
2023-06-17T05:43:57.420Z,38.76
2023-06-17T05:46:26.637Z,38.95
2023-06-17T05:48:55.441Z,39.02
2023-06-17T05:51:24.985Z,39.00
2023-06-17T05:53:55.648Z,38.98
2023-06-17T05:56:24.636Z,38.71
2023-06-17T05:58:53.937Z,38.73
2023-06-17T06:01:34.741Z,38.37
2023-06-17T06:04:04.819Z,38.59
2023-06-17T06:06:34.913Z,38.90
2023-06-17T06:09:06.209Z,39.01
2023-06-17T06:11:35.421Z,39.18
2023-06-17T06:14:04.082Z,39.20
2023-06-17T06:16:33.031Z,39.14
2023-06-17T06:19:01.793Z,39.40
2023-06-17T06:21:30.833Z,39.46
2023-06-17T06:24:02.086Z,39.56
2023-06-17T06:26:36.330Z,39.32
2023-06-17T06:29:06.859Z,39.68
2023-06-17T06:31:36.993Z,39.90
2023-06-17T06:34:05.915Z,39.71
2023-06-17T06:36:34.617Z,39.46
2023-06-17T06:39:03.612Z,39.64
2023-06-17T06:41:32.516Z,39.47
2023-06-17T06:44:19.503Z,39.20
2023-06-17T06:46:49.281Z,39.58
2023-06-17T06:49:18.025Z,39.79
2023-06-17T06:51:47.427Z,39.64
2023-06-17T06:54:16.521Z,39.78
2023-06-17T06:56:45.166Z,39.77
2023-06-17T06:59:14.309Z,39.76
2023-06-17T07:01:43.018Z,40.04
2023-06-17T07:04:13.156Z,40.26
2023-06-17T07:06:42.269Z,40.04
2023-06-17T07:09:15.804Z,39.98
2023-06-17T07:11:44.640Z,40.33
2023-06-17T07:14:14.407Z,40.22
2023-06-17T07:16:43.877Z,40.32
2023-06-17T07:19:13.597Z,40.08
2023-06-17T07:21:42.683Z,40.30
2023-06-17T07:24:11.875Z,40.06
2023-06-17T07:26:40.901Z,40.19
2023-06-17T07:29:09.868Z,40.22
2023-06-17T07:31:39.153Z,40.27
2023-06-17T07:34:08.023Z,40.24
2023-06-17T07:36:36.848Z,40.46
2023-06-17T07:39:05.667Z,40.68
2023-06-17T07:41:34.550Z,40.23
2023-06-17T07:44:03.198Z,40.02
2023-06-17T07:46:34.085Z,39.99
2023-06-17T07:49:02.968Z,40.17
2023-06-17T07:51:32.724Z,40.03
2023-06-17T07:54:01.660Z,40.38
2023-06-17T07:56:30.671Z,40.48
2023-06-17T07:59:01.139Z,40.51
2023-06-17T08:01:29.882Z,40.63
2023-06-17T08:03:59.219Z,40.58
2023-06-17T08:06:27.938Z,40.73
2023-06-17T08:08:56.936Z,40.67
2023-06-17T08:11:25.777Z,40.71
2023-06-17T08:13:54.595Z,40.76
2023-06-17T08:16:23.368Z,40.79
2023-06-17T08:18:52.446Z,40.78
2023-06-17T08:21:21.007Z,40.62
2023-06-17T08:23:53.352Z,40.19
2023-06-17T08:26:22.348Z,40.72
2023-06-17T08:28:50.908Z,40.68
2023-06-17T08:31:19.902Z,40.57
2023-06-17T08:33:48.643Z,40.64
2023-06-17T08:36:17.897Z,40.87
2023-06-17T08:38:46.541Z,41.07
2023-06-17T08:41:15.356Z,40.90
2023-06-17T08:43:46.449Z,40.39
2023-06-17T08:46:16.723Z,40.58
2023-06-17T08:48:48.406Z,40.92
2023-06-17T08:51:17.204Z,40.69
2023-06-17T08:53:47.300Z,40.82
2023-06-17T08:56:16.278Z,40.98
2023-06-17T08:58:45.919Z,40.56
2023-06-17T09:01:15.294Z,40.69
2023-06-17T09:03:44.775Z,40.59
2023-06-17T09:06:22.285Z,41.01
2023-06-17T09:08:55.574Z,40.79
2023-06-17T09:11:33.207Z,41.00
2023-06-17T09:14:04.110Z,41.07
2023-06-17T09:16:37.867Z,40.77
2023-06-17T09:19:10.973Z,40.55
2023-06-17T09:21:40.202Z,40.77
2023-06-17T09:24:13.492Z,41.02
2023-06-17T09:26:45.050Z,41.00
2023-06-17T09:29:15.423Z,41.04
2023-06-17T09:31:51.925Z,40.86
2023-06-17T09:34:22.504Z,40.90
2023-06-17T09:37:02.927Z,41.26
2023-06-17T09:39:35.577Z,41.05
2023-06-17T09:42:12.532Z,41.17
2023-06-17T09:44:42.250Z,40.98
2023-06-17T09:47:11.522Z,40.60
2023-06-17T09:49:40.615Z,40.41
2023-06-17T09:52:12.852Z,40.92
2023-06-17T09:54:43.342Z,41.05
2023-06-17T09:57:16.064Z,40.68
2023-06-17T09:59:48.089Z,40.51
2023-06-17T10:02:17.028Z,40.57
2023-06-17T10:04:46.425Z,40.90
2023-06-17T10:07:16.732Z,41.04
2023-06-17T10:09:45.766Z,40.75
2023-06-17T10:12:15.248Z,40.57
2023-06-17T10:14:45.228Z,40.57
2023-06-17T10:17:14.673Z,40.49
2023-06-17T10:19:46.106Z,40.43
2023-06-17T10:22:17.936Z,40.44
2023-06-17T10:24:47.318Z,40.48
2023-06-17T10:27:16.148Z,40.29
2023-06-17T10:29:48.101Z,40.37
2023-06-17T10:32:25.902Z,40.68
2023-06-17T10:35:21.932Z,40.62
2023-06-17T10:37:52.303Z,40.35
2023-06-17T10:40:27.045Z,40.60
2023-06-17T10:43:18.987Z,40.37
2023-06-17T10:45:53.618Z,40.42
2023-06-17T10:48:34.571Z,40.47
2023-06-17T10:51:05.683Z,40.12
2023-06-17T10:53:39.561Z,40.37
2023-06-17T10:56:14.023Z,40.28
2023-06-17T10:58:49.174Z,39.92
2023-06-17T11:01:18.984Z,39.90
2023-06-17T11:03:47.840Z,40.11
2023-06-17T11:06:16.830Z,40.05
2023-06-17T11:08:45.562Z,39.99
2023-06-17T11:11:18.856Z,40.01
2023-06-17T11:13:53.902Z,39.83
2023-06-17T11:16:22.871Z,39.80
2023-06-17T11:18:52.158Z,39.84
2023-06-17T11:21:21.164Z,39.87
2023-06-17T11:23:49.923Z,39.86
2023-06-17T11:26:19.838Z,39.66
2023-06-17T11:28:49.456Z,39.97
2023-06-17T11:31:18.376Z,40.08
2023-06-17T11:33:48.060Z,39.94
2023-06-17T11:36:19.462Z,39.84
2023-06-17T11:38:50.928Z,39.81
2023-06-17T11:41:19.868Z,39.68
2023-06-17T11:43:49.806Z,39.56
2023-06-17T11:46:26.661Z,39.82
2023-06-17T11:48:56.635Z,39.61
2023-06-17T11:51:25.822Z,39.40
2023-06-17T11:53:54.649Z,39.62
2023-06-17T11:56:24.383Z,39.72
2023-06-17T11:58:54.947Z,39.37
2023-06-17T12:01:28.170Z,39.43
2023-06-17T12:04:00.464Z,39.48
2023-06-17T12:06:29.966Z,39.67
2023-06-17T12:09:05.991Z,39.69
2023-06-17T12:11:37.903Z,39.39
2023-06-17T12:14:10.180Z,39.56
2023-06-17T12:16:41.648Z,39.40
2023-06-17T12:19:22.889Z,39.47
2023-06-17T12:21:52.700Z,39.28
2023-06-17T12:24:22.227Z,39.36
2023-06-17T12:26:51.486Z,39.30
2023-06-17T12:29:25.875Z,39.35
2023-06-17T12:31:55.743Z,38.91
2023-06-17T12:34:24.537Z,39.07
2023-06-17T12:36:53.464Z,39.42
2023-06-17T12:39:22.652Z,39.19
2023-06-17T12:41:51.776Z,39.26
2023-06-17T12:44:20.421Z,39.10
2023-06-17T12:46:49.854Z,39.18
2023-06-17T12:49:18.608Z,39.06
2023-06-17T12:51:47.938Z,38.87
2023-06-17T12:54:16.802Z,38.99
2023-06-17T12:56:45.976Z,38.91
2023-06-17T12:59:14.713Z,38.78
2023-06-17T13:01:43.942Z,38.74
2023-06-17T13:04:12.717Z,38.71
2023-06-17T13:06:41.848Z,38.77
2023-06-17T13:09:11.986Z,38.78
2023-06-17T13:11:44.359Z,38.72
2023-06-17T13:14:13.751Z,38.66
2023-06-17T13:16:43.087Z,38.48
2023-06-17T13:19:12.982Z,38.38
2023-06-17T13:21:44.080Z,38.28
2023-06-17T13:24:14.135Z,38.03
2023-06-17T13:26:44.237Z,38.07
2023-06-17T13:29:13.718Z,37.84
2023-06-17T13:31:42.472Z,37.81
2023-06-17T13:34:11.332Z,37.85
2023-06-17T13:36:44.058Z,37.83
2023-06-17T13:39:13.291Z,37.68
2023-06-17T13:41:46.723Z,37.57
2023-06-17T13:44:15.823Z,37.51
2023-06-17T13:46:44.783Z,37.29
2023-06-17T13:49:13.792Z,37.15
2023-06-17T13:51:42.645Z,37.17
2023-06-17T13:54:11.542Z,37.04
2023-06-17T13:56:40.192Z,37.02
2023-06-17T13:59:10.227Z,36.93
2023-06-17T14:01:38.865Z,36.92
2023-06-17T14:04:08.109Z,36.85
2023-06-17T14:06:38.173Z,36.83
2023-06-17T14:09:08.085Z,36.70
2023-06-17T14:11:39.862Z,36.65
2023-06-17T14:14:09.410Z,36.66
2023-06-17T14:16:38.047Z,36.57
2023-06-17T14:19:06.955Z,36.56
2023-06-17T14:21:37.471Z,36.55
2023-06-17T14:24:11.785Z,36.62
2023-06-17T14:26:42.648Z,36.54
2023-06-17T14:29:12.726Z,36.42
2023-06-17T14:31:41.690Z,36.40
2023-06-17T14:34:10.394Z,36.32
2023-06-17T14:36:39.416Z,36.22
2023-06-17T14:39:08.103Z,36.21
2023-06-17T14:41:36.978Z,36.20
2023-06-17T14:44:05.981Z,36.14
2023-06-17T14:46:35.045Z,36.13
2023-06-17T14:49:03.765Z,36.05
2023-06-17T14:51:33.436Z,36.04
2023-06-17T14:54:02.002Z,35.99
2023-06-17T14:56:32.586Z,35.96
2023-06-17T14:59:03.775Z,35.96
2023-06-17T15:01:34.371Z,35.93
2023-06-17T15:04:04.810Z,35.95
2023-06-17T15:06:33.858Z,35.89
2023-06-17T15:09:27.607Z,36.03
2023-06-17T15:11:58.383Z,35.88
2023-06-17T15:14:33.010Z,35.87
2023-06-17T15:17:02.301Z,35.75
2023-06-17T15:19:32.624Z,35.66
2023-06-17T15:22:01.676Z,35.60
2023-06-17T15:24:30.395Z,35.60
2023-06-17T15:26:59.434Z,35.61
2023-06-17T15:29:28.748Z,35.61
2023-06-17T15:31:57.592Z,35.50
2023-06-17T15:34:26.368Z,35.51
2023-06-17T15:36:55.327Z,35.52
2023-06-17T15:39:27.166Z,35.60
2023-06-17T15:41:56.649Z,35.57
2023-06-17T15:44:25.387Z,35.45
2023-06-17T15:46:54.566Z,35.46
2023-06-17T15:49:23.217Z,35.47
2023-06-17T15:51:52.188Z,35.41
2023-06-17T15:54:21.112Z,35.47
2023-06-17T15:56:50.039Z,35.48
2023-06-17T15:59:18.754Z,35.25
2023-06-17T16:01:47.749Z,35.23
2023-06-17T16:04:37.715Z,35.30
2023-06-17T16:07:16.381Z,35.24
2023-06-17T16:09:51.829Z,35.14
2023-06-17T16:12:20.923Z,35.00
2023-06-17T16:14:49.561Z,34.84
2023-06-17T16:17:18.750Z,34.82
2023-06-17T16:19:47.409Z,34.83
2023-06-17T16:22:16.305Z,34.84
2023-06-17T16:24:45.470Z,34.88
2023-06-17T16:27:14.543Z,34.90
2023-06-17T16:29:43.847Z,34.90
2023-06-17T16:32:12.941Z,34.85
2023-06-17T16:34:41.764Z,34.95
2023-06-17T16:37:11.049Z,34.90
2023-06-17T16:39:40.777Z,34.89
2023-06-17T16:42:09.825Z,34.85
2023-06-17T16:44:39.555Z,34.84
2023-06-17T16:47:08.851Z,34.79
2023-06-17T16:49:37.613Z,34.78
2023-06-17T16:52:06.781Z,34.74
2023-06-17T16:54:35.529Z,34.74
2023-06-17T16:57:04.703Z,34.68
2023-06-17T16:59:33.359Z,34.66
2023-06-17T17:02:02.433Z,34.63
2023-06-17T17:04:31.224Z,34.64
2023-06-17T17:07:00.704Z,34.64
2023-06-17T17:09:29.440Z,34.59
2023-06-17T17:11:58.722Z,34.58
2023-06-17T17:14:27.569Z,34.55
2023-06-17T17:16:57.502Z,34.52
2023-06-17T17:19:27.053Z,34.47
2023-06-17T17:21:56.095Z,34.41
2023-06-17T17:24:24.830Z,34.44
2023-06-17T17:26:53.856Z,34.46
2023-06-17T17:29:23.480Z,34.48
2023-06-17T17:31:52.385Z,34.48
2023-06-17T17:34:21.049Z,34.51
2023-06-17T17:36:50.002Z,34.50
2023-06-17T17:39:18.845Z,34.49
2023-06-17T17:41:47.682Z,34.47
2023-06-17T17:44:16.494Z,34.49
2023-06-17T17:46:45.542Z,34.40
2023-06-17T17:49:14.255Z,34.34
2023-06-17T17:51:43.135Z,34.29
2023-06-17T17:54:11.916Z,34.29
2023-06-17T17:56:40.817Z,34.26
2023-06-17T17:59:09.542Z,34.26
2023-06-17T18:01:38.585Z,34.24
2023-06-17T18:04:07.608Z,34.25
2023-06-17T18:06:36.584Z,34.24
2023-06-17T18:09:05.578Z,34.18
2023-06-17T18:11:34.493Z,34.22
2023-06-17T18:14:03.478Z,34.19
2023-06-17T18:16:32.438Z,34.21
2023-06-17T18:19:01.181Z,33.88
2023-06-17T18:21:30.702Z,33.86
2023-06-17T18:23:59.471Z,33.81
2023-06-17T18:26:32.293Z,33.91
2023-06-17T18:29:02.209Z,33.96
2023-06-17T18:31:31.221Z,33.96
2023-06-17T18:33:59.970Z,34.01
2023-06-17T18:36:28.928Z,33.99
2023-06-17T18:38:57.648Z,33.97
2023-06-17T18:43:56.332Z,33.97
2023-06-17T18:46:25.334Z,33.92
2023-06-17T18:48:54.204Z,33.95
2023-06-17T18:51:23.131Z,33.93
2023-06-17T18:53:51.722Z,33.76
2023-06-17T18:56:20.628Z,33.82
2023-06-17T18:58:49.497Z,33.87
2023-06-17T19:01:18.878Z,33.87
2023-06-17T19:03:47.981Z,33.81
2023-06-17T19:06:17.005Z,33.76
2023-06-17T19:08:45.851Z,33.73
2023-06-17T19:11:17.308Z,33.73
2023-06-17T19:13:46.492Z,33.73
2023-06-17T19:16:15.520Z,33.72
2023-06-17T19:18:44.725Z,33.73
2023-06-17T19:21:14.050Z,33.66
2023-06-17T19:23:42.930Z,33.66
2023-06-17T19:26:11.686Z,33.69
2023-06-17T19:28:40.515Z,33.66
2023-06-17T19:31:09.274Z,33.59
2023-06-17T19:33:38.223Z,33.54
2023-06-17T19:36:07.715Z,33.51
2023-06-17T19:38:36.923Z,33.45
2023-06-17T19:41:05.714Z,33.47
2023-06-17T19:43:37.580Z,33.46
2023-06-17T19:46:06.621Z,33.52
2023-06-17T19:48:35.363Z,33.42
2023-06-17T19:51:04.226Z,33.51
2023-06-17T19:53:32.987Z,33.35
2023-06-17T19:56:02.006Z,33.42
2023-06-17T19:58:30.678Z,33.40
2023-06-17T20:01:03.892Z,33.29
2023-06-17T20:03:33.302Z,33.20
2023-06-17T20:06:03.026Z,33.13
2023-06-17T20:08:32.993Z,33.20
2023-06-17T20:11:02.280Z,33.26
2023-06-17T20:13:31.531Z,33.16
2023-06-17T20:16:00.916Z,33.14
2023-06-17T20:18:31.378Z,33.21
2023-06-17T20:21:02.038Z,33.05
2023-06-17T20:23:33.063Z,33.17
2023-06-17T20:26:04.417Z,33.14
2023-06-17T20:28:36.011Z,33.06
2023-06-17T20:31:06.288Z,33.16
2023-06-17T20:33:37.086Z,33.19
2023-06-17T20:36:08.259Z,33.16
2023-06-17T20:38:38.490Z,33.11
2023-06-17T20:41:08.886Z,33.13
2023-06-17T20:43:39.124Z,33.11
2023-06-17T20:46:09.488Z,33.13
2023-06-17T20:48:39.667Z,33.10
2023-06-17T20:51:11.343Z,33.03
2023-06-17T20:53:41.732Z,33.16
2023-06-17T20:56:12.343Z,32.91
2023-06-17T20:58:43.253Z,32.92
2023-06-17T21:01:13.570Z,32.94
2023-06-17T21:03:44.011Z,32.71
2023-06-17T21:06:14.850Z,32.65
2023-06-17T21:08:45.547Z,32.66
2023-06-17T21:11:16.286Z,32.75
2023-06-17T21:13:46.521Z,32.68
2023-06-17T21:16:17.295Z,32.71
2023-06-17T21:18:48.074Z,32.72
2023-06-17T21:21:18.866Z,32.68
2023-06-17T21:23:49.264Z,32.63
2023-06-17T21:26:19.494Z,32.62
2023-06-17T21:28:50.051Z,32.64
2023-06-17T21:31:20.865Z,32.62
2023-06-17T21:33:52.878Z,32.51
2023-06-17T21:36:23.620Z,32.48
2023-06-17T21:38:53.911Z,32.53
2023-06-17T21:41:24.685Z,32.55
2023-06-17T21:43:55.782Z,32.58
2023-06-17T21:46:29.122Z,32.59
2023-06-17T21:49:00.021Z,32.38
2023-06-17T21:51:30.333Z,32.38
2023-06-17T21:54:01.012Z,32.46
2023-06-17T21:56:31.737Z,32.50
2023-06-17T21:59:02.091Z,32.52
2023-06-17T22:01:32.831Z,32.50
2023-06-17T22:04:03.567Z,32.48
2023-06-17T22:06:34.256Z,32.50
2023-06-17T22:09:04.484Z,32.50
2023-06-17T22:11:35.298Z,32.53
2023-06-17T22:14:05.455Z,32.53
2023-06-17T22:16:36.882Z,32.52
2023-06-17T22:19:07.280Z,32.48
2023-06-17T22:21:37.663Z,32.46
2023-06-17T22:24:07.928Z,32.44
2023-06-17T22:26:38.336Z,32.33
2023-06-17T22:29:09.404Z,32.39
2023-06-17T22:31:40.166Z,32.26
2023-06-17T22:34:12.918Z,32.22
2023-06-17T22:36:43.525Z,32.20
2023-06-17T22:39:13.832Z,32.31
2023-06-17T22:41:43.815Z,32.30
2023-06-17T22:44:14.157Z,32.35
2023-06-17T22:46:45.392Z,32.29
2023-06-17T22:49:16.176Z,32.29
2023-06-17T22:51:46.834Z,32.31
2023-06-17T22:54:16.805Z,32.32
2023-06-17T22:56:47.467Z,32.35
2023-06-17T22:59:17.845Z,32.31
2023-06-17T23:01:48.627Z,32.34
2023-06-17T23:04:19.199Z,32.34
2023-06-17T23:06:49.235Z,32.35
2023-06-17T23:09:20.271Z,32.29
2023-06-17T23:11:51.572Z,32.32
2023-06-17T23:14:22.243Z,32.34
2023-06-17T23:16:54.194Z,32.35
2023-06-17T23:19:24.824Z,32.29
2023-06-17T23:21:56.345Z,32.29
2023-06-17T23:24:26.630Z,32.30
2023-06-17T23:26:56.896Z,32.33
2023-06-17T23:29:27.687Z,32.32
2023-06-17T23:31:58.058Z,32.15
2023-06-17T23:34:28.347Z,32.01
2023-06-17T23:36:59.350Z,32.00
2023-06-17T23:39:29.140Z,32.11
2023-06-17T23:41:59.877Z,32.17
2023-06-17T23:44:29.880Z,32.19
2023-06-17T23:47:00.556Z,32.06
2023-06-17T23:49:30.939Z,32.08
2023-06-17T23:52:01.963Z,32.08
2023-06-17T23:54:31.605Z,32.03
2023-06-17T23:57:02.158Z,32.01
2023-06-17T23:59:33.502Z,31.95
